createdAt,value
2018-04-29T00:01:58.503Z,0.90
2018-04-29T00:04:25.968Z,0.93
2018-04-29T00:06:54.204Z,1.10
2018-04-29T00:09:21.664Z,1.20
2018-04-29T00:11:49.126Z,1.15
2018-04-29T00:14:16.575Z,1.00
2018-04-29T00:16:44.124Z,0.80
2018-04-29T00:19:11.614Z,1.10
2018-04-29T00:21:39.081Z,0.90
2018-04-29T00:24:06.560Z,1.05
2018-04-29T00:26:34.042Z,1.10
2018-04-29T00:29:02.268Z,1.15
2018-04-29T00:31:29.748Z,1.00
2018-04-29T00:33:57.220Z,0.90
2018-04-29T00:36:24.672Z,0.95
2018-04-29T00:38:52.160Z,0.82
2018-04-29T00:41:19.627Z,0.95
2018-04-29T00:43:47.081Z,1.25
2018-04-29T00:46:14.576Z,1.20
2018-04-29T00:48:42.042Z,1.10
2018-04-29T00:51:09.501Z,1.40
2018-04-29T00:53:36.952Z,1.10
2018-04-29T00:56:04.425Z,1.37
2018-04-29T00:58:31.913Z,1.20
2018-04-29T01:01:00.123Z,1.35
2018-04-29T01:03:27.596Z,1.40
2018-04-29T01:05:55.098Z,1.45
2018-04-29T01:08:22.543Z,1.17
2018-04-29T01:10:50.013Z,1.17
2018-04-29T01:13:18.620Z,1.10
2018-04-29T01:15:46.088Z,1.37
2018-04-29T01:18:13.559Z,1.40
2018-04-29T01:20:41.004Z,1.55
2018-04-29T01:23:08.518Z,1.62
2018-04-29T01:25:35.943Z,1.40
2018-04-29T01:28:03.432Z,1.48
2018-04-29T01:30:31.648Z,1.40
2018-04-29T01:32:59.132Z,1.30
2018-04-29T01:35:27.339Z,1.45
2018-04-29T01:37:55.567Z,1.50
2018-04-29T01:40:23.045Z,1.67
2018-04-29T01:42:50.524Z,1.50
2018-04-29T01:45:17.988Z,1.33
2018-04-29T01:47:45.436Z,1.60
2018-04-29T01:50:12.891Z,1.17
2018-04-29T01:52:40.371Z,1.67
2018-04-29T01:55:08.595Z,1.37
2018-04-29T01:57:36.060Z,1.58
2018-04-29T02:00:03.543Z,1.80
2018-04-29T02:02:30.991Z,1.27
2018-04-29T02:04:58.444Z,1.40
2018-04-29T02:07:25.923Z,1.37
2018-04-29T02:09:54.132Z,1.70
2018-04-29T02:12:21.596Z,1.40
2018-04-29T02:14:49.052Z,1.65
2018-04-29T02:17:16.516Z,1.67
2018-04-29T02:19:44.007Z,1.60
2018-04-29T02:22:11.479Z,1.48
2018-04-29T02:24:38.924Z,1.60
2018-04-29T02:27:06.419Z,1.15
2018-04-29T02:29:34.665Z,1.08
2018-04-29T02:32:02.138Z,1.40
2018-04-29T02:34:30.373Z,1.37
2018-04-29T02:36:57.844Z,1.45
2018-04-29T02:39:25.298Z,1.58
2018-04-29T02:41:52.779Z,1.60
2018-04-29T02:44:20.217Z,1.15
2018-04-29T02:46:47.688Z,1.42
2018-04-29T02:49:15.150Z,1.42
2018-04-29T02:51:42.588Z,1.33
2018-04-29T02:54:10.085Z,1.45
2018-04-29T02:56:37.560Z,1.60
2018-04-29T02:59:05.001Z,1.73
2018-04-29T03:01:32.528Z,1.50
2018-04-29T03:03:59.992Z,1.90
2018-04-29T03:06:27.443Z,1.80
2018-04-29T03:08:54.928Z,1.67
2018-04-29T03:11:23.152Z,1.90
2018-04-29T03:13:50.640Z,2.05
2018-04-29T03:16:18.087Z,1.42
2018-04-29T03:18:45.568Z,1.70
2018-04-29T03:21:13.784Z,1.80
2018-04-29T03:23:41.240Z,1.55
2018-04-29T03:26:08.712Z,1.70
2018-04-29T03:28:36.169Z,1.55
2018-04-29T03:31:03.648Z,1.58
2018-04-29T03:33:31.095Z,2.20
2018-04-29T03:35:58.556Z,1.77
2018-04-29T03:38:26.052Z,1.33
2018-04-29T03:40:54.297Z,1.48
2018-04-29T03:43:21.766Z,1.80
2018-04-29T03:45:49.240Z,1.77
2018-04-29T03:48:17.472Z,1.70
2018-04-29T03:50:44.940Z,1.60
2018-04-29T03:53:12.435Z,1.77
2018-04-29T03:55:39.904Z,2.05
2018-04-29T03:58:19.280Z,1.23
2018-04-29T04:00:58.604Z,1.70
2018-04-29T04:03:38.049Z,1.70
2018-04-29T04:06:05.518Z,1.75
2018-04-29T04:08:32.990Z,1.40
2018-04-29T04:11:00.464Z,1.65
2018-04-29T04:13:28.684Z,1.42
2018-04-29T04:15:56.173Z,1.50
2018-04-29T04:18:23.648Z,1.42
2018-04-29T04:20:51.888Z,1.40
2018-04-29T04:23:19.803Z,1.50
2018-04-29T04:25:48.014Z,1.60
2018-04-29T04:28:15.496Z,1.87
2018-04-29T04:30:43.711Z,1.83
2018-04-29T04:33:11.172Z,1.40
2018-04-29T04:35:38.640Z,1.80
2018-04-29T04:38:06.097Z,1.55
2018-04-29T04:40:33.552Z,1.73
2018-04-29T04:43:01.022Z,1.80
2018-04-29T04:45:28.511Z,1.70
2018-04-29T04:47:56.006Z,1.42
2018-04-29T04:50:23.490Z,1.37
2018-04-29T04:52:51.000Z,1.60
2018-04-29T04:55:18.476Z,1.83
2018-04-29T04:57:46.684Z,1.60
2018-04-29T05:00:14.155Z,1.40
2018-04-29T05:02:41.623Z,1.37
2018-04-29T05:05:09.080Z,1.37
2018-04-29T05:07:36.557Z,1.50
2018-04-29T05:10:04.016Z,1.70
2018-04-29T05:12:31.508Z,1.25
2018-04-29T05:14:59.748Z,1.70
2018-04-29T05:17:27.212Z,1.60
2018-04-29T05:19:54.670Z,1.60
2018-04-29T05:22:22.187Z,1.37
2018-04-29T05:24:49.628Z,1.35
2018-04-29T05:27:17.075Z,1.30
2018-04-29T05:29:44.592Z,1.62
2018-04-29T05:32:12.041Z,1.50
2018-04-29T05:34:39.503Z,1.50
2018-04-29T05:37:06.975Z,1.35
2018-04-29T05:39:34.473Z,1.05
2018-04-29T05:42:01.987Z,1.50
2018-04-29T05:44:29.452Z,1.48
2018-04-29T05:46:56.912Z,1.70
2018-04-29T05:49:25.212Z,1.50
2018-04-29T05:51:53.455Z,1.33
2018-04-29T05:54:20.932Z,1.87
2018-04-29T05:56:49.172Z,1.83
2018-04-29T05:59:18.318Z,1.52
2018-04-29T06:01:45.825Z,1.60
2018-04-29T06:04:13.281Z,1.70
2018-04-29T06:06:40.804Z,1.60
2018-04-29T06:09:08.190Z,1.65
2018-04-29T06:11:35.709Z,1.70
2018-04-29T06:14:03.235Z,2.20
2018-04-29T06:16:30.658Z,1.70
2018-04-29T06:18:58.121Z,1.65
2018-04-29T06:21:25.596Z,1.52
2018-04-29T06:23:53.045Z,1.80
2018-04-29T06:26:20.551Z,1.65
2018-04-29T06:28:48.752Z,1.55
2018-04-29T06:31:16.225Z,1.80
2018-04-29T06:33:43.684Z,1.58
2018-04-29T06:36:11.161Z,1.58
2018-04-29T06:38:38.608Z,1.75
2018-04-29T06:41:06.052Z,2.05
2018-04-29T06:43:33.544Z,1.75
2018-04-29T06:46:01.008Z,1.83
2018-04-29T06:48:29.258Z,1.65
2018-04-29T06:50:56.716Z,1.75
2018-04-29T06:53:24.219Z,1.70
2018-04-29T06:55:51.648Z,1.40
2018-04-29T06:58:19.115Z,1.40
2018-04-29T07:00:47.344Z,1.48
2018-04-29T07:03:14.800Z,1.35
2018-04-29T07:05:42.264Z,1.40
2018-04-29T07:08:10.565Z,1.73
2018-04-29T07:10:37.987Z,1.52
2018-04-29T07:13:05.463Z,1.27
2018-04-29T07:15:32.931Z,1.23
2018-04-29T07:18:00.413Z,1.40
2018-04-29T07:20:28.644Z,1.33
2018-04-29T07:22:56.120Z,1.42
2018-04-29T07:25:23.596Z,1.37
2018-04-29T07:27:51.073Z,1.60
2018-04-29T07:30:18.581Z,1.35
2018-04-29T07:32:46.053Z,1.50
2018-04-29T07:35:13.513Z,1.70
2018-04-29T07:37:41.056Z,1.30
2018-04-29T07:40:08.591Z,1.80
2018-04-29T07:42:36.831Z,1.60
2018-04-29T07:45:05.060Z,2.30
2018-04-29T07:47:32.507Z,1.50
2018-04-29T07:50:00.006Z,1.80
2018-04-29T07:52:27.580Z,1.70
2018-04-29T07:54:54.904Z,1.37
2018-04-29T07:57:22.403Z,1.42
2018-04-29T07:59:50.059Z,1.52
2018-04-29T08:02:18.296Z,1.10
2018-04-29T08:04:45.773Z,1.70
2018-04-29T08:07:13.243Z,1.48
2018-04-29T08:09:41.569Z,1.60
2018-04-29T08:12:08.972Z,1.50
2018-04-29T08:14:37.212Z,1.65
2018-04-29T08:17:04.671Z,1.45
2018-04-29T08:19:32.129Z,1.42
2018-04-29T08:21:59.616Z,1.40
2018-04-29T08:24:29.614Z,1.50
2018-04-29T08:27:56.439Z,1.60
2018-04-29T08:30:23.941Z,1.45
2018-04-29T08:32:51.383Z,1.45
2018-04-29T08:35:18.882Z,1.45
2018-04-29T08:37:46.360Z,1.40
2018-04-29T08:40:13.864Z,1.33
2018-04-29T08:42:42.109Z,1.27
2018-04-29T08:45:09.590Z,1.30
2018-04-29T08:47:37.077Z,1.50
2018-04-29T08:50:04.617Z,1.20
2018-04-29T08:52:32.045Z,1.35
2018-04-29T08:54:59.513Z,1.40
2018-04-29T08:57:26.967Z,1.67
2018-04-29T08:59:54.472Z,1.00
2018-04-29T09:02:21.952Z,1.30
2018-04-29T09:04:49.467Z,1.20
2018-04-29T09:07:17.692Z,1.27
2018-04-29T09:09:45.172Z,1.02
2018-04-29T09:12:12.636Z,1.10
2018-04-29T09:14:40.145Z,1.20
2018-04-29T09:17:07.591Z,1.80
2018-04-29T09:19:35.064Z,1.10
2018-04-29T09:22:02.582Z,1.25
2018-04-29T09:24:30.852Z,1.30
2018-04-29T09:26:58.293Z,1.00
2018-04-29T09:29:26.104Z,1.00
2018-04-29T09:31:53.647Z,1.20
2018-04-29T09:34:21.867Z,1.23
2018-04-29T09:36:49.428Z,1.10
2018-04-29T09:39:17.616Z,1.10
2018-04-29T09:41:45.064Z,1.30
2018-04-29T09:44:12.520Z,1.20
2018-04-29T09:46:40.001Z,1.43
2018-04-29T09:49:07.475Z,1.40
2018-04-29T09:51:35.707Z,1.33
2018-04-29T09:54:03.204Z,1.37
2018-04-29T09:56:30.668Z,1.30
2018-04-29T09:58:58.136Z,1.30
2018-04-29T10:01:26.360Z,1.50
2018-04-29T10:03:53.879Z,1.73
2018-04-29T10:06:22.108Z,1.60
2018-04-29T10:08:49.551Z,1.50
2018-04-29T10:11:17.016Z,1.40
2018-04-29T10:13:44.481Z,1.30
2018-04-29T10:16:11.947Z,1.70
2018-04-29T10:18:39.464Z,1.70
2018-04-29T10:21:06.926Z,1.60
2018-04-29T10:23:34.396Z,1.53
2018-04-29T10:26:01.837Z,1.60
2018-04-29T10:28:29.296Z,1.70
2018-04-29T10:30:56.844Z,1.80
2018-04-29T10:33:24.289Z,1.43
2018-04-29T10:35:51.736Z,1.70
2018-04-29T10:38:19.202Z,1.67
2018-04-29T10:40:46.670Z,2.47
2018-04-29T10:43:14.126Z,3.30
2018-04-29T10:45:41.603Z,2.27
2018-04-29T10:48:09.085Z,3.50
2018-04-29T10:50:36.560Z,3.07
2018-04-29T10:53:04.028Z,2.30
2018-04-29T10:55:32.247Z,2.40
2018-04-29T10:57:59.792Z,1.60
2018-04-29T11:00:27.251Z,1.80
2018-04-29T11:02:54.735Z,1.80
2018-04-29T11:05:22.228Z,2.10
2018-04-29T11:07:49.708Z,1.93
2018-04-29T11:10:17.956Z,1.50
2018-04-29T11:12:45.439Z,2.20
2018-04-29T11:15:13.672Z,1.63
2018-04-29T11:17:41.147Z,1.73
2018-04-29T11:20:08.632Z,1.90
2018-04-29T11:22:36.839Z,1.83
2018-04-29T11:25:04.320Z,1.80
2018-04-29T11:27:31.769Z,1.60
2018-04-29T11:29:59.233Z,1.40
2018-04-29T11:32:26.684Z,1.73
2018-04-29T11:34:54.165Z,1.50
2018-04-29T11:37:21.619Z,1.47
2018-04-29T11:39:49.077Z,1.80
2018-04-29T11:42:16.551Z,1.63
2018-04-29T11:44:44.827Z,1.63
2018-04-29T11:47:13.076Z,1.80
2018-04-29T11:49:40.559Z,1.73
2018-04-29T11:52:08.800Z,1.90
2018-04-29T11:54:36.282Z,1.63
2018-04-29T11:57:03.782Z,1.63
2018-04-29T11:59:31.926Z,1.60
2018-04-29T12:01:59.488Z,2.47
2018-04-29T12:04:26.879Z,2.20
2018-04-29T12:06:54.328Z,1.83
2018-04-29T12:09:21.805Z,2.60
2018-04-29T12:11:49.311Z,1.57
2018-04-29T12:14:17.527Z,1.83
2018-04-29T12:16:44.976Z,2.00
2018-04-29T12:19:12.470Z,1.93
2018-04-29T12:21:39.937Z,1.90
2018-04-29T12:24:07.384Z,1.70
2018-04-29T12:26:34.852Z,1.90
2018-04-29T12:29:02.312Z,2.10
2018-04-29T12:31:29.769Z,1.90
2018-04-29T12:33:57.271Z,1.70
2018-04-29T12:36:24.740Z,1.93
2018-04-29T12:38:52.211Z,2.33
2018-04-29T12:41:19.690Z,1.73
2018-04-29T12:43:47.179Z,2.03
2018-04-29T12:46:15.432Z,1.47
2018-04-29T12:48:42.902Z,2.10
2018-04-29T12:51:10.358Z,1.67
2018-04-29T12:53:37.807Z,1.60
2018-04-29T12:56:05.296Z,1.80
2018-04-29T12:58:33.521Z,1.70
2018-04-29T13:01:01.536Z,1.77
2018-04-29T13:03:29.776Z,1.73
2018-04-29T13:05:57.259Z,1.63
2018-04-29T13:08:24.708Z,1.70
2018-04-29T13:10:52.192Z,2.40
2018-04-29T13:13:20.127Z,2.07
2018-04-29T13:15:47.624Z,2.30
2018-04-29T13:18:15.072Z,1.93
2018-04-29T13:20:42.532Z,2.30
2018-04-29T13:23:09.987Z,1.90
2018-04-29T13:25:37.448Z,1.83
2018-04-29T13:28:04.917Z,1.80
2018-04-29T13:30:32.455Z,1.97
2018-04-29T13:33:00.680Z,2.10
2018-04-29T13:35:28.146Z,1.47
2018-04-29T13:37:55.625Z,1.60
2018-04-29T13:40:23.866Z,2.30
2018-04-29T13:42:51.338Z,1.90
2018-04-29T13:45:18.808Z,2.10
2018-04-29T13:47:46.268Z,2.00
2018-04-29T13:50:13.724Z,1.80
2018-04-29T13:52:41.188Z,2.00
2018-04-29T13:55:09.436Z,1.60
2018-04-29T13:57:36.926Z,1.80
2018-04-29T14:00:04.397Z,1.67
2018-04-29T14:02:32.612Z,1.70
2018-04-29T14:05:00.096Z,1.70
2018-04-29T14:07:27.547Z,1.57
2018-04-29T14:09:55.029Z,1.70
2018-04-29T14:12:22.472Z,1.80
2018-04-29T14:14:49.943Z,1.50
2018-04-29T14:17:17.395Z,1.90
2018-04-29T14:19:44.864Z,1.57
2018-04-29T14:22:13.118Z,1.77
2018-04-29T14:24:40.588Z,1.60
2018-04-29T14:27:08.044Z,1.90
2018-04-29T14:29:35.627Z,1.80
2018-04-29T14:32:03.082Z,1.43
2018-04-29T14:34:31.320Z,1.50
2018-04-29T14:36:58.784Z,1.83
2018-04-29T14:39:26.239Z,1.93
2018-04-29T14:41:53.755Z,1.50
2018-04-29T14:44:21.223Z,1.70
2018-04-29T14:46:48.671Z,1.60
2018-04-29T14:49:16.194Z,1.70
2018-04-29T14:51:44.410Z,1.63
2018-04-29T14:54:11.895Z,1.83
2018-04-29T14:56:39.376Z,2.10
2018-04-29T14:59:06.815Z,1.90
2018-04-29T15:01:34.284Z,1.40
2018-04-29T15:04:01.761Z,1.70
2018-04-29T15:06:29.976Z,1.57
2018-04-29T15:08:57.451Z,1.50
2018-04-29T15:11:24.927Z,1.53
2018-04-29T15:13:52.391Z,1.70
2018-04-29T15:16:19.844Z,1.83
2018-04-29T15:18:59.136Z,1.70
2018-04-29T15:21:26.602Z,1.30
2018-04-29T15:23:54.072Z,1.53
2018-04-29T15:26:21.545Z,1.60
2018-04-29T15:28:48.983Z,1.70
2018-04-29T15:31:16.454Z,1.70
2018-04-29T15:33:43.922Z,1.77
2018-04-29T15:36:11.367Z,1.13
2018-04-29T15:38:38.823Z,1.70
2018-04-29T15:41:06.299Z,1.70
2018-04-29T15:43:33.740Z,1.43
2018-04-29T15:46:01.223Z,1.60
2018-04-29T15:48:29.468Z,1.47
2018-04-29T15:50:56.931Z,1.60
2018-04-29T15:53:24.403Z,1.63
2018-04-29T15:55:51.871Z,1.70
2018-04-29T15:58:20.120Z,1.70
2018-04-29T16:00:47.643Z,1.57
2018-04-29T16:03:15.114Z,1.47
2018-04-29T16:05:42.555Z,1.70
2018-04-29T16:08:10.009Z,1.50
2018-04-29T16:10:37.485Z,1.53
2018-04-29T16:13:04.944Z,1.57
2018-04-29T16:15:32.414Z,1.30
2018-04-29T16:17:59.855Z,1.30
2018-04-29T16:20:27.330Z,1.70
2018-04-29T16:22:54.795Z,1.60
2018-04-29T16:25:22.279Z,1.77
2018-04-29T16:27:50.545Z,1.80
2018-04-29T16:30:18.004Z,1.50
2018-04-29T16:32:45.476Z,1.50
2018-04-29T16:35:13.759Z,1.87
2018-04-29T16:37:41.961Z,1.60
2018-04-29T16:40:09.443Z,1.40
2018-04-29T16:42:36.922Z,1.40
2018-04-29T16:45:04.400Z,1.60
2018-04-29T16:47:32.624Z,1.30
2018-04-29T16:50:00.075Z,1.40
2018-04-29T16:52:27.534Z,1.73
2018-04-29T16:54:55.000Z,1.50
2018-04-29T16:57:22.463Z,1.67
2018-04-29T16:59:49.963Z,1.47
2018-04-29T17:02:18.169Z,1.70
2018-04-29T17:04:45.650Z,1.93
2018-04-29T17:07:13.106Z,1.87
2018-04-29T17:09:40.593Z,1.63
2018-04-29T17:12:08.036Z,1.60
2018-04-29T17:14:35.512Z,1.60
2018-04-29T17:17:03.741Z,1.73
2018-04-29T17:19:31.210Z,1.50
2018-04-29T17:21:58.764Z,1.60
2018-04-29T17:24:26.229Z,1.70
2018-04-29T17:26:53.680Z,1.93
2018-04-29T17:29:21.803Z,1.60
2018-04-29T17:31:49.266Z,1.97
2018-04-29T17:34:16.824Z,1.97
2018-04-29T17:36:45.097Z,1.53
2018-04-29T17:39:13.303Z,2.00
2018-04-29T17:41:40.779Z,1.70
2018-04-29T17:44:08.368Z,1.70
2018-04-29T17:46:35.699Z,1.80
2018-04-29T17:49:03.148Z,1.80
2018-04-29T17:51:30.619Z,1.80
2018-04-29T17:53:58.084Z,1.80
2018-04-29T17:56:25.563Z,1.90
2018-04-29T17:58:53.801Z,2.20
2018-04-29T18:01:21.368Z,2.10
2018-04-29T18:03:49.513Z,1.97
2018-04-29T18:06:17.741Z,1.97
2018-04-29T18:08:45.216Z,1.77
2018-04-29T18:11:13.454Z,1.73
2018-04-29T18:13:40.929Z,1.90
2018-04-29T18:16:08.415Z,1.77
2018-04-29T18:18:35.871Z,1.87
2018-04-29T18:21:03.349Z,2.00
2018-04-29T18:23:30.824Z,1.90
2018-04-29T18:25:58.336Z,1.80
2018-04-29T18:28:26.551Z,2.10
2018-04-29T18:30:54.036Z,1.97
2018-04-29T18:33:22.476Z,2.00
2018-04-29T18:35:49.944Z,1.83
2018-04-29T18:38:17.392Z,2.00
2018-04-29T18:40:44.848Z,2.10
2018-04-29T18:43:13.083Z,2.17
2018-04-29T18:45:40.555Z,2.43
2018-04-29T18:48:08.014Z,1.70
2018-04-29T18:50:35.599Z,2.20
2018-04-29T18:53:02.955Z,1.83
2018-04-29T18:55:30.412Z,2.00
2018-04-29T18:57:57.883Z,2.10
2018-04-29T19:00:25.356Z,2.10
2018-04-29T19:02:52.844Z,1.83
2018-04-29T19:05:21.124Z,2.23
2018-04-29T19:07:49.375Z,1.67
2018-04-29T19:10:16.828Z,1.93
2018-04-29T19:12:44.299Z,2.10
2018-04-29T19:15:12.517Z,1.53
2018-04-29T19:17:39.984Z,1.60
2018-04-29T19:20:07.489Z,1.77
2018-04-29T19:22:34.940Z,1.90
2018-04-29T19:25:02.436Z,1.90
2018-04-29T19:27:30.026Z,1.97
2018-04-29T19:29:57.512Z,2.00
2018-04-29T19:32:25.023Z,1.93
2018-04-29T19:34:53.239Z,2.13
2018-04-29T19:37:20.700Z,1.87
2018-04-29T19:39:48.192Z,2.10
2018-04-29T19:42:16.435Z,1.60
2018-04-29T19:44:43.904Z,1.77
2018-04-29T19:47:11.406Z,2.10
2018-04-29T19:49:38.907Z,1.90
2018-04-29T19:52:06.324Z,1.90
2018-04-29T19:54:33.795Z,1.87
2018-04-29T19:57:01.260Z,1.80
2018-04-29T19:59:29.238Z,1.90
2018-04-29T20:01:56.741Z,2.00
2018-04-29T20:04:24.216Z,2.30
2018-04-29T20:06:51.663Z,2.10
2018-04-29T20:09:19.121Z,1.90
2018-04-29T20:11:46.596Z,2.10
2018-04-29T20:14:14.067Z,2.10
2018-04-29T20:16:41.543Z,2.07
2018-04-29T20:19:09.016Z,2.17
2018-04-29T20:21:36.477Z,2.40
2018-04-29T20:24:03.936Z,1.80
2018-04-29T20:26:32.188Z,2.03
2018-04-29T20:28:59.660Z,2.03
2018-04-29T20:31:27.126Z,1.90
2018-04-29T20:33:54.623Z,1.97
2018-04-29T20:36:22.069Z,2.00
2018-04-29T20:38:49.524Z,2.37
2018-04-29T20:41:16.984Z,2.00
2018-04-29T20:43:44.477Z,1.70
2018-04-29T20:46:11.953Z,2.00
2018-04-29T20:48:39.400Z,2.00
2018-04-29T20:51:06.879Z,1.97
2018-04-29T20:53:34.336Z,1.70
2018-04-29T20:56:01.816Z,2.20
2018-04-29T20:58:29.304Z,2.53
2018-04-29T21:00:56.827Z,2.07
2018-04-29T21:03:25.072Z,2.33
2018-04-29T21:05:52.568Z,2.50
2018-04-29T21:08:20.812Z,2.23
2018-04-29T21:10:48.283Z,2.53
2018-04-29T21:13:15.744Z,2.00
2018-04-29T21:15:43.193Z,2.50
2018-04-29T21:18:10.652Z,2.70
2018-04-29T21:20:38.110Z,2.20
2018-04-29T21:23:05.562Z,2.40
2018-04-29T21:25:33.049Z,2.30
2018-04-29T21:28:00.525Z,2.00
2018-04-29T21:30:27.995Z,2.80
2018-04-29T21:32:55.475Z,2.40
2018-04-29T21:35:22.935Z,2.10
2018-04-29T21:37:50.410Z,1.80
2018-04-29T21:40:17.860Z,2.33
2018-04-29T21:42:45.319Z,2.47
2018-04-29T21:45:12.777Z,2.13
2018-04-29T21:47:40.236Z,2.40
2018-04-29T21:50:07.712Z,2.53
2018-04-29T21:52:35.940Z,2.17
2018-04-29T21:55:03.421Z,2.73
2018-04-29T21:57:30.893Z,2.57
2018-04-29T21:59:59.125Z,2.13
2018-04-29T22:02:26.615Z,2.17
2018-04-29T22:04:54.088Z,2.60
2018-04-29T22:07:22.308Z,2.37
2018-04-29T22:09:49.802Z,2.43
2018-04-29T22:12:17.273Z,2.07
2018-04-29T22:14:44.754Z,2.53
2018-04-29T22:17:12.227Z,2.57
2018-04-29T22:19:39.672Z,2.33
2018-04-29T22:22:07.125Z,2.23
2018-04-29T22:24:34.611Z,2.03
2018-04-29T22:27:02.099Z,1.90
2018-04-29T22:29:30.140Z,2.30
2018-04-29T22:31:57.624Z,2.20
2018-04-29T22:34:25.081Z,1.93
2018-04-29T22:36:52.552Z,2.13
2018-04-29T22:39:20.025Z,2.50
2018-04-29T22:41:48.271Z,2.27
2018-04-29T22:44:15.762Z,2.37
2018-04-29T22:46:44.004Z,2.37
2018-04-29T22:49:11.451Z,3.33
2018-04-29T22:51:38.927Z,3.37
2018-04-29T22:54:06.376Z,3.13
2018-04-29T22:56:33.848Z,2.80
2018-04-29T22:59:01.329Z,3.50
2018-04-29T23:01:29.553Z,3.50
2018-04-29T23:03:57.010Z,4.20
2018-04-29T23:06:24.452Z,4.47
2018-04-29T23:08:51.935Z,4.67
2018-04-29T23:11:19.442Z,5.90
2018-04-29T23:13:47.632Z,6.53
2018-04-29T23:16:15.089Z,6.27
2018-04-29T23:18:42.540Z,5.17
2018-04-29T23:21:10.040Z,5.90
2018-04-29T23:23:37.516Z,5.50
2018-04-29T23:26:04.965Z,5.33
2018-04-29T23:28:32.414Z,4.57
2018-04-29T23:30:59.887Z,4.30
2018-04-29T23:33:27.339Z,4.10
2018-04-29T23:35:54.783Z,4.13
2018-04-29T23:38:22.256Z,3.07
2018-04-29T23:40:49.736Z,3.13
2018-04-29T23:43:17.968Z,2.90
2018-04-29T23:45:45.419Z,3.03
2018-04-29T23:48:12.903Z,2.97
2018-04-29T23:50:40.367Z,3.37
2018-04-29T23:53:07.844Z,3.20
2018-04-29T23:55:36.060Z,2.90
2018-04-29T23:58:03.535Z,3.17
